Time;durP1;ratioP1;P1;durP2;ratioP2;P2;SDS_P1;SDS_P2;PMS_P1;PMS_P2;Temp;Humidity;BMP_temperature;BMP_pressure;BME280_temperature;BME280_humidity;BME280_pressure;Samples;Min_cycle;Max_cycle;Signal;HPM_P1;HPM_P2
2022/01/27 00:03:17;;;;;;;57.38;22.45;;;;;;;;;;6245131;22;20011;-82
2022/01/27 00:05:51;;;;;;;59.50;24.75;;;;;;;;;;6245715;22;20015;-82
2022/01/27 00:08:23;;;;;;;64.80;23.40;;;;;;;;;;6221230;22;20039;-82
2022/01/27 00:11:01;;;;;;;58.10;22.92;;;;;;;;;;6220605;22;20461;-82
2022/01/27 00:13:31;;;;;;;65.75;25.73;;;;;;;;;;6222921;22;20012;-82
2022/01/27 00:16:13;;;;;;;58.72;21.35;;;;;;;;;;6246297;22;20340;-82
2022/01/27 00:18:40;;;;;;;58.50;21.83;;;;;;;;;;6248578;22;20011;-82
2022/01/27 00:21:06;;;;;;;56.03;22.23;;;;;;;;;;6219654;22;20016;-82
2022/01/27 00:23:32;;;;;;;55.78;21.55;;;;;;;;;;6219246;22;20015;-82
2022/01/27 00:25:57;;;;;;;55.13;21.42;;;;;;;;;;6219356;22;20023;-82
2022/01/27 00:28:23;;;;;;;54.95;20.33;;;;;;;;;;6219895;22;20389;-82
2022/01/27 00:30:49;;;;;;;50.55;19.45;;;;;;;;;;6219487;22;20028;-82
2022/01/27 00:33:14;;;;;;;49.70;20.63;;;;;;;;;;6219644;22;20346;-82
2022/01/27 00:35:40;;;;;;;52.88;21.25;;;;;;;;;;6219278;22;20023;-83
2022/01/27 00:38:06;;;;;;;48.30;19.52;;;;;;;;;;6219866;22;20024;-82
2022/01/27 00:40:32;;;;;;;55.28;21.42;;;;;;;;;;6244413;22;20336;-82
2022/01/27 00:42:58;;;;;;;55.75;21.05;;;;;;;;;;6244624;22;20039;-83
2022/01/27 00:45:25;;;;;;;48.53;19.30;;;;;;;;;;6219217;22;20029;-82
2022/01/27 00:47:50;;;;;;;53.90;21.33;;;;;;;;;;6218591;22;20026;-82
2022/01/27 00:50:18;;;;;;;53.20;19.80;;;;;;;;;;6217616;22;20015;-82
2022/01/27 00:52:51;;;;;;;51.95;20.05;;;;;;;;;;6218083;22;20046;-82
2022/01/27 00:55:17;;;;;;;57.08;21.98;;;;;;;;;;6219779;22;20026;-82
2022/01/27 01:00:52;;;;;;;49.60;20.83;;;;;;;;;;6216194;22;20036;-82
2022/01/27 01:03:27;;;;;;;51.83;22.02;;;;;;;;;;6219999;22;20025;-82
2022/01/27 01:06:19;;;;;;;55.78;20.65;;;;;;;;;;6221102;22;20046;-82
2022/01/27 01:19:18;;;;;;;49.65;18.85;;;;;;;;;;6245022;22;20029;-81
2022/01/27 01:30:07;;;;;;;44.22;18.25;;;;;;;;;;6244914;22;20040;-81
2022/01/27 01:35:07;;;;;;;49.17;18.40;;;;;;;;;;6247293;22;20044;-81
2022/01/27 01:37:39;;;;;;;47.17;18.42;;;;;;;;;;6219803;22;20015;-81
2022/01/27 01:40:12;;;;;;;42.58;17.83;;;;;;;;;;6219450;22;20016;-81
2022/01/27 01:42:39;;;;;;;46.42;18.10;;;;;;;;;;6243446;22;20049;-81
2022/01/27 01:45:08;;;;;;;44.10;18.60;;;;;;;;;;6218526;22;20022;-81
2022/01/27 01:47:33;;;;;;;40.42;17.45;;;;;;;;;;6243776;22;20071;-81
2022/01/27 01:49:59;;;;;;;42.45;17.50;;;;;;;;;;6219710;22;20069;-80
2022/01/27 01:52:25;;;;;;;43.75;17.23;;;;;;;;;;6219174;22;20012;-81
2022/01/27 01:54:52;;;;;;;41.78;17.92;;;;;;;;;;6218711;22;20020;-81
2022/01/27 01:57:18;;;;;;;44.88;17.80;;;;;;;;;;6243529;22;20020;-80
2022/01/27 01:59:43;;;;;;;39.78;17.35;;;;;;;;;;6218589;22;20381;-81
2022/01/27 02:02:12;;;;;;;45.90;17.90;;;;;;;;;;6219039;22;20047;-81
2022/01/27 02:04:38;;;;;;;44.35;18.67;;;;;;;;;;6244832;22;20453;-81
2022/01/27 02:07:11;;;;;;;43.38;18.25;;;;;;;;;;6243169;22;20090;-81
2022/01/27 02:17:59;;;;;;;39.28;17.98;;;;;;;;;;6247980;22;20022;-81
2022/01/27 02:20:25;;;;;;;45.25;18.60;;;;;;;;;;6220332;22;20027;-81
2022/01/27 02:22:51;;;;;;;45.83;18.77;;;;;;;;;;6218867;22;20056;-81
2022/01/27 02:25:19;;;;;;;40.38;17.60;;;;;;;;;;6219479;22;20023;-81
2022/01/27 02:27:45;;;;;;;40.65;18.25;;;;;;;;;;6218984;22;20035;-82
2022/01/27 02:30:11;;;;;;;44.95;19.45;;;;;;;;;;6218597;22;20023;-80
2022/01/27 02:32:37;;;;;;;50.55;19.75;;;;;;;;;;6218324;22;20011;-81
2022/01/27 02:35:04;;;;;;;43.20;19.60;;;;;;;;;;6218754;22;20053;-81
2022/01/27 02:37:30;;;;;;;43.22;16.63;;;;;;;;;;6244197;22;20022;-80
2022/01/27 02:39:56;;;;;;;40.85;19.65;;;;;;;;;;6218761;22;20035;-80
2022/01/27 02:42:27;;;;;;;35.70;17.17;;;;;;;;;;6267666;22;20054;-81
2022/01/27 02:44:55;;;;;;;40.17;17.25;;;;;;;;;;6218082;22;20034;-81
2022/01/27 02:47:23;;;;;;;41.17;18.17;;;;;;;;;;6245402;22;20035;-80
2022/01/27 02:49:48;;;;;;;38.75;17.55;;;;;;;;;;6219572;22;20134;-81
2022/01/27 02:52:14;;;;;;;35.78;14.80;;;;;;;;;;6219232;22;20366;-80
2022/01/27 02:54:40;;;;;;;43.88;20.38;;;;;;;;;;6244387;22;20014;-80
2022/01/27 02:57:07;;;;;;;38.45;16.90;;;;;;;;;;6219498;22;20353;-81
2022/01/27 02:59:32;;;;;;;41.45;17.88;;;;;;;;;;6218588;22;20012;-80
2022/01/27 03:01:59;;;;;;;38.03;17.63;;;;;;;;;;6245270;22;20020;-81
2022/01/27 03:04:26;;;;;;;36.53;16.83;;;;;;;;;;6219764;22;20043;-81
2022/01/27 03:06:53;;;;;;;37.22;16.25;;;;;;;;;;6219879;22;20404;-81
2022/01/27 03:09:19;;;;;;;37.30;17.73;;;;;;;;;;6244430;22;20039;-81
2022/01/27 03:11:58;;;;;;;38.60;17.88;;;;;;;;;;6244818;22;20123;-81
2022/01/27 03:14:25;;;;;;;38.67;17.13;;;;;;;;;;6245335;22;20016;-81
2022/01/27 03:16:56;;;;;;;34.78;15.93;;;;;;;;;;6219023;22;20046;-81
2022/01/27 03:19:22;;;;;;;34.60;16.48;;;;;;;;;;6218799;22;20098;-80
2022/01/27 03:21:48;;;;;;;33.53;17.08;;;;;;;;;;6219532;22;20020;-80
2022/01/27 03:24:15;;;;;;;34.45;15.57;;;;;;;;;;6219617;22;20023;-81
2022/01/27 03:26:42;;;;;;;34.10;16.13;;;;;;;;;;6219288;22;20099;-80
2022/01/27 03:29:07;;;;;;;31.52;14.35;;;;;;;;;;6245453;22;20047;-81
2022/01/27 03:31:33;;;;;;;31.02;15.60;;;;;;;;;;6220238;22;20031;-81
2022/01/27 03:33:59;;;;;;;33.35;15.80;;;;;;;;;;6220778;22;20404;-81
2022/01/27 03:36:25;;;;;;;30.90;14.35;;;;;;;;;;6220174;22;20035;-81
2022/01/27 03:38:51;;;;;;;32.90;16.63;;;;;;;;;;6219185;22;20014;-80
2022/01/27 03:41:22;;;;;;;31.67;15.38;;;;;;;;;;6219001;22;20024;-81
2022/01/27 03:43:49;;;;;;;28.35;14.60;;;;;;;;;;6219495;22;20015;-81
2022/01/27 03:46:15;;;;;;;27.55;14.57;;;;;;;;;;6218608;22;20019;-81
2022/01/27 03:48:41;;;;;;;32.03;15.55;;;;;;;;;;6219165;22;20032;-81
2022/01/27 03:51:07;;;;;;;29.38;14.48;;;;;;;;;;6244484;22;20087;-84
2022/01/27 03:53:33;;;;;;;28.63;14.93;;;;;;;;;;6219514;22;20027;-84
2022/01/27 03:55:59;;;;;;;33.97;16.50;;;;;;;;;;6245324;22;20011;-83
2022/01/27 03:58:24;;;;;;;28.00;14.15;;;;;;;;;;6219768;22;20103;-83
2022/01/27 04:00:50;;;;;;;28.85;14.13;;;;;;;;;;6220613;22;20016;-84
2022/01/27 04:03:18;;;;;;;30.42;14.38;;;;;;;;;;6219309;22;20065;-84
2022/01/27 04:05:51;;;;;;;24.63;11.50;;;;;;;;;;6220110;22;20035;-84
2022/01/27 04:08:17;;;;;;;29.75;14.77;;;;;;;;;;6221394;22;20357;-83
2022/01/27 04:10:43;;;;;;;26.88;13.27;;;;;;;;;;6218711;22;20311;-84
2022/01/27 04:13:09;;;;;;;26.25;12.65;;;;;;;;;;6219663;22;20094;-83
2022/01/27 04:15:36;;;;;;;28.98;13.05;;;;;;;;;;6219480;22;20071;-84
2022/01/27 04:18:03;;;;;;;27.55;14.82;;;;;;;;;;6219258;22;20601;-83
2022/01/27 04:20:28;;;;;;;28.25;14.10;;;;;;;;;;6219786;22;20197;-83
2022/01/27 04:22:54;;;;;;;24.95;13.60;;;;;;;;;;6219575;22;20015;-84
2022/01/27 04:25:20;;;;;;;25.25;12.40;;;;;;;;;;6220414;22;20043;-83
2022/01/27 04:27:50;;;;;;;29.05;13.35;;;;;;;;;;6244174;22;20015;-84
2022/01/27 04:30:17;;;;;;;24.83;13.18;;;;;;;;;;6219523;22;20028;-84
2022/01/27 04:32:49;;;;;;;23.77;12.73;;;;;;;;;;6217744;22;20020;-84
2022/01/27 04:35:18;;;;;;;25.77;13.52;;;;;;;;;;6219092;22;20016;-84
2022/01/27 04:37:53;;;;;;;20.42;11.27;;;;;;;;;;6220146;22;20022;-84
2022/01/27 04:40:25;;;;;;;21.17;11.32;;;;;;;;;;6221007;22;20019;-83
2022/01/27 04:46:03;;;;;;;22.67;11.13;;;;;;;;;;6247028;22;20120;-83
2022/01/27 04:48:23;;;;;;;19.75;11.40;;;;;;;;;;6268626;22;20461;-84
2022/01/27 04:50:50;;;;;;;18.77;10.45;;;;;;;;;;6219608;22;20452;-83
2022/01/27 04:53:26;;;;;;;16.58;10.00;;;;;;;;;;6244499;22;20475;-84
2022/01/27 04:55:55;;;;;;;17.45;9.95;;;;;;;;;;6221076;22;20065;-83
2022/01/27 04:58:28;;;;;;;13.45;8.30;;;;;;;;;;6244528;22;20449;-84
2022/01/27 05:00:57;;;;;;;13.65;8.35;;;;;;;;;;6221121;22;20615;-84
2022/01/27 05:03:33;;;;;;;14.98;8.40;;;;;;;;;;6220224;22;20035;-83
2022/01/27 05:05:59;;;;;;;13.23;8.32;;;;;;;;;;6221000;22;20011;-83
2022/01/27 05:08:25;;;;;;;13.35;8.15;;;;;;;;;;6218220;22;20086;-84
2022/01/27 05:10:58;;;;;;;14.23;8.15;;;;;;;;;;6242762;22;20066;-83
2022/01/27 05:13:27;;;;;;;11.13;7.35;;;;;;;;;;6244562;22;20019;-84
2022/01/27 05:15:53;;;;;;;11.27;7.13;;;;;;;;;;6220027;22;20018;-85
2022/01/27 05:18:20;;;;;;;12.15;7.80;;;;;;;;;;6219514;22;20477;-84
2022/01/27 05:20:46;;;;;;;12.35;6.57;;;;;;;;;;6244354;22;20011;-84
2022/01/27 05:23:12;;;;;;;12.35;7.50;;;;;;;;;;6218198;22;20077;-84
2022/01/27 05:25:38;;;;;;;9.93;6.70;;;;;;;;;;6217737;22;20023;-84
2022/01/27 05:28:06;;;;;;;11.55;7.05;;;;;;;;;;6218491;22;20405;-84
2022/01/27 05:30:32;;;;;;;12.30;7.40;;;;;;;;;;6219152;22;20023;-84
2022/01/27 05:32:57;;;;;;;12.65;7.30;;;;;;;;;;6218219;22;20020;-85
2022/01/27 05:35:23;;;;;;;12.57;7.65;;;;;;;;;;6219964;22;20073;-84
2022/01/27 05:37:49;;;;;;;14.13;7.28;;;;;;;;;;6219869;22;20327;-84
2022/01/27 05:40:15;;;;;;;16.48;8.82;;;;;;;;;;6245059;22;20039;-84
2022/01/27 05:42:40;;;;;;;17.33;9.95;;;;;;;;;;6219508;22;20209;-84
2022/01/27 05:45:06;;;;;;;20.13;11.40;;;;;;;;;;6218673;22;20050;-85
2022/01/27 05:47:32;;;;;;;21.60;11.45;;;;;;;;;;6220635;22;20047;-84
2022/01/27 05:49:58;;;;;;;23.65;11.07;;;;;;;;;;6219408;22;20330;-84
2022/01/27 05:52:23;;;;;;;21.85;11.93;;;;;;;;;;6219377;22;20019;-84
2022/01/27 05:54:49;;;;;;;22.52;11.75;;;;;;;;;;6220378;22;20353;-84
2022/01/27 05:57:15;;;;;;;21.80;11.77;;;;;;;;;;6220147;22;20023;-84
2022/01/27 05:59:41;;;;;;;19.20;9.80;;;;;;;;;;6244944;22;20461;-84
2022/01/27 06:02:07;;;;;;;21.30;11.65;;;;;;;;;;6219300;22;20070;-84
2022/01/27 06:04:33;;;;;;;21.45;11.18;;;;;;;;;;6219728;22;20024;-84
2022/01/27 06:06:58;;;;;;;22.70;13.30;;;;;;;;;;6220095;22;20007;-84
2022/01/27 06:09:25;;;;;;;24.85;12.23;;;;;;;;;;6219705;22;20574;-84
2022/01/27 06:11:51;;;;;;;21.48;12.70;;;;;;;;;;6220768;22;20018;-84
2022/01/27 06:14:17;;;;;;;24.33;11.55;;;;;;;;;;6219423;22;20437;-84
2022/01/27 06:16:45;;;;;;;21.88;11.80;;;;;;;;;;6219305;22;20352;-84
2022/01/27 06:19:10;;;;;;;19.83;12.05;;;;;;;;;;6245653;22;20015;-84
2022/01/27 06:21:36;;;;;;;23.63;12.75;;;;;;;;;;6220955;22;20007;-84
2022/01/27 06:24:05;;;;;;;20.67;11.50;;;;;;;;;;6247094;22;20330;-84
2022/01/27 06:26:31;;;;;;;22.92;12.30;;;;;;;;;;6247310;22;20497;-84
2022/01/27 06:28:57;;;;;;;19.23;11.20;;;;;;;;;;6220637;22;20023;-84
2022/01/27 06:31:23;;;;;;;20.33;11.32;;;;;;;;;;6220513;22;20016;-84
2022/01/27 06:33:49;;;;;;;22.83;12.30;;;;;;;;;;6221982;22;20022;-84
2022/01/27 06:36:14;;;;;;;20.48;11.77;;;;;;;;;;6219714;22;20035;-84
2022/01/27 06:38:40;;;;;;;18.92;10.48;;;;;;;;;;6221424;22;20023;-85
2022/01/27 06:41:06;;;;;;;23.60;11.70;;;;;;;;;;6246760;22;20043;-84
2022/01/27 06:43:32;;;;;;;19.35;9.95;;;;;;;;;;6246176;22;20113;-84
2022/01/27 06:45:57;;;;;;;18.85;10.75;;;;;;;;;;6220683;22;20019;-84
2022/01/27 06:48:23;;;;;;;23.27;11.77;;;;;;;;;;6220510;22;20020;-84
2022/01/27 06:50:53;;;;;;;20.95;10.95;;;;;;;;;;6220907;22;20023;-84
2022/01/27 06:53:19;;;;;;;21.50;11.45;;;;;;;;;;6222888;22;20020;-84
2022/01/27 06:55:45;;;;;;;23.58;11.80;;;;;;;;;;6221089;22;20098;-84
2022/01/27 06:58:11;;;;;;;20.83;11.38;;;;;;;;;;6220566;22;20035;-84
2022/01/27 07:00:37;;;;;;;22.13;12.60;;;;;;;;;;6220556;22;20019;-84
2022/01/27 07:03:02;;;;;;;20.88;11.98;;;;;;;;;;6219496;22;20043;-83
2022/01/27 07:05:31;;;;;;;23.30;13.60;;;;;;;;;;6219486;22;20030;-84
2022/01/27 07:07:57;;;;;;;22.60;12.45;;;;;;;;;;6220700;22;20039;-84
2022/01/27 07:10:22;;;;;;;21.63;12.10;;;;;;;;;;6245600;22;20100;-84
2022/01/27 07:12:48;;;;;;;22.63;12.75;;;;;;;;;;6219376;22;20061;-84
2022/01/27 07:15:14;;;;;;;23.45;12.70;;;;;;;;;;6244604;22;20027;-84
2022/01/27 07:17:40;;;;;;;21.50;12.25;;;;;;;;;;6220885;22;20016;-84
2022/01/27 07:20:07;;;;;;;24.40;14.05;;;;;;;;;;6220950;22;20039;-84
2022/01/27 07:22:33;;;;;;;24.33;12.30;;;;;;;;;;6245642;22;20357;-84
2022/01/27 07:24:59;;;;;;;23.85;13.88;;;;;;;;;;6221227;22;20086;-84
2022/01/27 07:27:25;;;;;;;21.75;12.65;;;;;;;;;;6220917;22;20065;-84
2022/01/27 07:29:50;;;;;;;24.45;14.20;;;;;;;;;;6218890;22;20086;-83
2022/01/27 07:32:16;;;;;;;17.45;9.15;;;;;;;;;;6219619;22;20457;-83
2022/01/27 07:34:42;;;;;;;22.23;13.10;;;;;;;;;;6220514;22;20023;-83
2022/01/27 07:37:07;;;;;;;21.55;11.65;;;;;;;;;;6245738;22;20020;-83
2022/01/27 07:39:33;;;;;;;21.80;13.50;;;;;;;;;;6219805;22;20019;-83
2022/01/27 07:42:00;;;;;;;23.58;13.18;;;;;;;;;;6244782;22;20081;-83
2022/01/27 07:44:26;;;;;;;20.95;12.32;;;;;;;;;;6222130;22;20008;-83
2022/01/27 07:46:52;;;;;;;26.73;13.60;;;;;;;;;;6219942;22;20016;-83
2022/01/27 07:49:18;;;;;;;24.05;13.07;;;;;;;;;;6220659;22;20077;-83
2022/01/27 07:51:44;;;;;;;25.98;13.77;;;;;;;;;;6218851;22;20020;-83
2022/01/27 07:54:09;;;;;;;24.23;12.07;;;;;;;;;;6220428;22;20522;-83
2022/01/27 07:56:35;;;;;;;22.70;12.52;;;;;;;;;;6219692;22;20092;-83
2022/01/27 07:59:01;;;;;;;22.67;12.30;;;;;;;;;;6246708;22;20020;-83
2022/01/27 08:01:27;;;;;;;23.70;12.80;;;;;;;;;;6224004;22;20449;-83
2022/01/27 08:03:52;;;;;;;25.52;13.05;;;;;;;;;;6222703;22;20034;-83
2022/01/27 08:06:18;;;;;;;21.73;11.95;;;;;;;;;;6219096;22;20027;-83
2022/01/27 08:08:44;;;;;;;20.00;11.95;;;;;;;;;;6220385;22;20035;-83
2022/01/27 08:11:10;;;;;;;23.52;12.55;;;;;;;;;;6221012;22;20039;-83
2022/01/27 08:13:37;;;;;;;19.52;10.70;;;;;;;;;;6219281;22;20018;-83
2022/01/27 08:16:03;;;;;;;25.73;11.93;;;;;;;;;;6220073;22;20015;-83
2022/01/27 08:18:28;;;;;;;18.10;11.13;;;;;;;;;;6244676;22;20464;-83
2022/01/27 08:20:54;;;;;;;20.95;11.50;;;;;;;;;;6219109;22;20118;-83
2022/01/27 08:23:20;;;;;;;19.83;11.55;;;;;;;;;;6219001;22;20022;-83
2022/01/27 08:25:51;;;;;;;19.33;11.27;;;;;;;;;;6219382;22;20020;-83
2022/01/27 08:28:28;;;;;;;19.85;10.13;;;;;;;;;;6220679;22;20019;-84
2022/01/27 08:30:55;;;;;;;18.20;11.18;;;;;;;;;;6222349;22;20099;-83
2022/01/27 08:33:23;;;;;;;18.70;10.20;;;;;;;;;;6245793;22;20020;-83
2022/01/27 08:35:48;;;;;;;17.27;8.95;;;;;;;;;;6219877;22;20073;-83
2022/01/27 08:38:14;;;;;;;19.30;10.90;;;;;;;;;;6219418;22;20028;-83
2022/01/27 08:40:40;;;;;;;20.13;11.43;;;;;;;;;;6219672;22;20474;-83
2022/01/27 08:43:07;;;;;;;17.77;10.68;;;;;;;;;;6218435;22;20026;-83
2022/01/27 08:45:33;;;;;;;18.80;11.13;;;;;;;;;;6219085;22;20094;-83
2022/01/27 08:48:00;;;;;;;18.58;11.20;;;;;;;;;;6244827;22;20023;-84
2022/01/27 08:50:27;;;;;;;18.23;10.77;;;;;;;;;;6219758;22;20069;-83
2022/01/27 08:52:52;;;;;;;17.23;9.65;;;;;;;;;;6219488;22;20468;-83
2022/01/27 08:55:20;;;;;;;19.42;10.93;;;;;;;;;;6217960;22;20024;-83
2022/01/27 08:57:46;;;;;;;18.75;10.95;;;;;;;;;;6219271;22;20018;-83
2022/01/27 09:00:15;;;;;;;23.90;12.15;;;;;;;;;;6219693;22;20453;-83
2022/01/27 09:02:40;;;;;;;21.10;11.82;;;;;;;;;;6219229;22;20090;-83
2022/01/27 09:05:06;;;;;;;22.92;12.85;;;;;;;;;;6244157;22;20074;-83
2022/01/27 09:07:34;;;;;;;20.73;11.70;;;;;;;;;;6244807;22;20059;-83
2022/01/27 09:09:59;;;;;;;20.48;11.23;;;;;;;;;;6244865;22;20076;-83
2022/01/27 09:12:25;;;;;;;21.05;11.30;;;;;;;;;;6244609;22;20020;-83
2022/01/27 09:14:51;;;;;;;22.67;11.65;;;;;;;;;;6219865;22;20016;-84
2022/01/27 09:17:16;;;;;;;21.88;11.73;;;;;;;;;;6219471;22;20054;-83
2022/01/27 09:19:45;;;;;;;21.15;11.82;;;;;;;;;;6218896;22;20046;-84
2022/01/27 09:22:14;;;;;;;24.48;12.05;;;;;;;;;;6220014;22;20039;-84
2022/01/27 09:24:53;;;;;;;23.92;12.38;;;;;;;;;;6220464;22;20012;-83
2022/01/27 09:27:19;;;;;;;21.85;12.15;;;;;;;;;;6245369;22;20091;-83
2022/01/27 09:29:47;;;;;;;25.17;13.40;;;;;;;;;;6216605;22;20019;-83
2022/01/27 09:32:13;;;;;;;23.63;12.80;;;;;;;;;;6219802;22;20368;-83
2022/01/27 09:34:38;;;;;;;21.92;12.60;;;;;;;;;;6244271;22;20023;-84
2022/01/27 09:37:05;;;;;;;23.55;12.95;;;;;;;;;;6216921;22;20020;-83
2022/01/27 09:39:32;;;;;;;24.58;13.45;;;;;;;;;;6217638;22;20081;-83
2022/01/27 09:41:59;;;;;;;25.42;13.68;;;;;;;;;;6216104;22;20018;-83
2022/01/27 09:44:31;;;;;;;25.02;13.02;;;;;;;;;;6216393;22;20012;-83
2022/01/27 09:47:08;;;;;;;15.45;8.57;;;;;;;;;;6217838;22;20016;-84
2022/01/27 09:49:48;;;;;;;19.08;8.45;;;;;;;;;;6211758;22;20020;-83
2022/01/27 09:52:14;;;;;;;25.58;13.57;;;;;;;;;;6243915;22;20016;-83
2022/01/27 09:54:40;;;;;;;28.23;13.32;;;;;;;;;;6214241;22;20352;-83
2022/01/27 09:57:06;;;;;;;31.85;16.23;;;;;;;;;;6244626;22;20016;-83
2022/01/27 09:59:32;;;;;;;27.55;13.55;;;;;;;;;;6219895;22;20461;-83
2022/01/27 10:02:06;;;;;;;27.42;15.10;;;;;;;;;;6242678;22;20042;-82
2022/01/27 10:04:50;;;;;;;29.65;14.75;;;;;;;;;;6218511;22;20019;-83
2022/01/27 10:07:19;;;;;;;27.58;14.48;;;;;;;;;;6243417;22;20078;-83
2022/01/27 10:10:05;;;;;;;30.17;16.65;;;;;;;;;;6219472;22;20022;-83
2022/01/27 10:12:41;;;;;;;29.48;14.05;;;;;;;;;;6218072;22;20015;-83
2022/01/27 10:15:07;;;;;;;;;;;;;;;;;;6220865;22;20401;-83
2022/01/27 10:17:37;;;;;;;32.45;15.45;;;;;;;;;;6245192;22;19911;-83
2022/01/27 10:20:04;;;;;;;35.88;17.65;;;;;;;;;;6220719;22;20449;-83
2022/01/27 10:22:30;;;;;;;37.33;18.85;;;;;;;;;;6218373;22;20019;-83
2022/01/27 10:25:00;;;;;;;37.22;18.77;;;;;;;;;;6220333;22;20020;-83
2022/01/27 10:27:45;;;;;;;35.85;16.15;;;;;;;;;;6218818;22;20086;-83
2022/01/27 10:32:56;;;;;;;41.13;19.55;;;;;;;;;;6246551;22;20016;-82
2022/01/27 10:35:24;;;;;;;33.17;14.70;;;;;;;;;;6220194;22;20019;-82
2022/01/27 10:38:07;;;;;;;36.83;17.83;;;;;;;;;;6243769;22;20483;-82
2022/01/27 10:40:35;;;;;;;38.58;16.58;;;;;;;;;;6243863;22;20011;-85
2022/01/27 10:43:23;;;;;;;38.30;18.30;;;;;;;;;;6219197;22;20027;-84
2022/01/27 10:46:32;;;;;;;45.95;20.92;;;;;;;;;;6219380;22;20015;-82
2022/01/27 10:49:02;;;;;;;41.30;20.55;;;;;;;;;;6247904;22;20007;-83
2022/01/27 10:51:39;;;;;;;39.75;19.52;;;;;;;;;;6219596;22;20433;-82
2022/01/27 10:54:08;;;;;;;40.33;18.67;;;;;;;;;;6221294;22;20106;-82
2022/01/27 10:56:36;;;;;;;48.67;19.77;;;;;;;;;;6219075;22;20019;-82
2022/01/27 10:59:05;;;;;;;46.40;21.25;;;;;;;;;;6244810;22;20023;-82
2022/01/27 11:01:33;;;;;;;39.92;19.33;;;;;;;;;;6267624;22;20066;-85
2022/01/27 11:04:02;;;;;;;43.63;20.73;;;;;;;;;;6218641;22;20086;-82
2022/01/27 11:06:31;;;;;;;47.88;21.02;;;;;;;;;;6243762;22;20047;-85
2022/01/27 11:08:58;;;;;;;43.40;19.42;;;;;;;;;;6244142;22;20134;-84
2022/01/27 11:11:26;;;;;;;47.15;20.83;;;;;;;;;;6243744;22;20469;-84
2022/01/27 11:13:53;;;;;;;44.47;20.42;;;;;;;;;;6217478;22;20015;-82
2022/01/27 11:16:23;;;;;;;42.47;16.73;;;;;;;;;;6219005;22;20039;-82
2022/01/27 11:18:49;;;;;;;45.40;19.55;;;;;;;;;;6219950;22;20011;-82
2022/01/27 11:21:34;;;;;;;48.25;22.35;;;;;;;;;;6218152;22;20373;-82
2022/01/27 11:24:05;;;;;;;45.47;20.55;;;;;;;;;;6248563;22;20016;-82
2022/01/27 11:26:32;;;;;;;53.90;23.05;;;;;;;;;;6245481;22;20353;-82
2022/01/27 11:28:58;;;;;;;49.75;21.00;;;;;;;;;;6218289;22;20019;-84
2022/01/27 11:31:58;;;;;;;46.47;22.92;;;;;;;;;;6217579;22;20095;-82
2022/01/27 11:34:44;;;;;;;47.75;21.08;;;;;;;;;;6247382;22;20475;-85
2022/01/27 11:37:09;;;;;;;51.08;21.52;;;;;;;;;;6221216;22;20069;-85
2022/01/27 11:39:50;;;;;;;58.47;23.02;;;;;;;;;;6245928;22;20024;-84
2022/01/27 11:42:20;;;;;;;46.75;21.65;;;;;;;;;;6217568;22;20016;-85
2022/01/27 11:44:47;;;;;;;53.42;24.42;;;;;;;;;;6218252;22;20022;-82
2022/01/27 11:47:14;;;;;;;49.63;20.85;;;;;;;;;;6219515;22;20047;-82
2022/01/27 11:50:07;;;;;;;49.15;21.30;;;;;;;;;;6271669;22;20020;-82
2022/01/27 11:52:48;;;;;;;49.65;22.10;;;;;;;;;;6246520;22;20016;-82
2022/01/27 11:55:37;;;;;;;49.60;22.27;;;;;;;;;;6244693;22;20031;-85
2022/01/27 11:58:23;;;;;;;55.33;22.02;;;;;;;;;;6217230;22;20023;-85
2022/01/27 12:01:07;;;;;;;46.75;21.38;;;;;;;;;;6245572;22;20420;-83
2022/01/27 12:03:33;;;;;;;41.95;19.65;;;;;;;;;;6245207;22;20019;-85
2022/01/27 12:06:14;;;;;;;52.35;22.60;;;;;;;;;;6219921;22;20012;-85
2022/01/27 12:08:40;;;;;;;42.95;18.48;;;;;;;;;;6243679;22;20530;-85
2022/01/27 12:11:09;;;;;;;44.03;18.13;;;;;;;;;;6219761;22;20019;-85
2022/01/27 12:13:44;;;;;;;48.45;20.95;;;;;;;;;;6220014;22;20054;-82
2022/01/27 12:19:09;;;;;;;45.38;21.15;;;;;;;;;;6245055;22;20019;-82
2022/01/27 12:21:45;;;;;;;42.08;17.65;;;;;;;;;;6244080;22;20035;-82
2022/01/27 12:24:16;;;;;;;30.17;12.85;;;;;;;;;;6220605;22;20042;-85
2022/01/27 12:27:07;;;;;;;44.60;19.65;;;;;;;;;;6245657;22;20027;-84
2022/01/27 12:29:41;;;;;;;38.83;16.33;;;;;;;;;;6218468;22;20030;-84
2022/01/27 12:32:17;;;;;;;49.22;21.50;;;;;;;;;;6219309;22;20015;-82
2022/01/27 12:34:52;;;;;;;41.63;17.60;;;;;;;;;;6244278;22;20329;-82
2022/01/27 12:37:20;;;;;;;42.75;20.40;;;;;;;;;;6219353;22;20050;-84
2022/01/27 12:39:54;;;;;;;42.15;20.20;;;;;;;;;;6218992;22;20012;-84
2022/01/27 12:42:22;;;;;;;42.08;17.67;;;;;;;;;;6217657;22;20073;-82
2022/01/27 12:45:02;;;;;;;46.80;20.10;;;;;;;;;;6218649;22;20015;-82
2022/01/27 12:47:29;;;;;;;44.05;19.67;;;;;;;;;;6217264;22;20038;-82
2022/01/27 12:50:23;;;;;;;41.30;17.85;;;;;;;;;;6217594;22;20011;-84
2022/01/27 12:52:57;;;;;;;44.08;18.67;;;;;;;;;;6265472;22;20086;-85
2022/01/27 12:55:31;;;;;;;41.28;18.17;;;;;;;;;;6219480;22;20042;-82
2022/01/27 12:57:59;;;;;;;39.53;18.33;;;;;;;;;;6218136;22;20012;-82
2022/01/27 13:00:25;;;;;;;42.80;19.75;;;;;;;;;;6220170;22;20086;-85
2022/01/27 13:02:51;;;;;;;38.25;16.35;;;;;;;;;;6222709;22;20020;-84
2022/01/27 13:05:17;;;;;;;37.25;16.25;;;;;;;;;;6225052;22;20020;-84
2022/01/27 13:07:46;;;;;;;48.08;20.20;;;;;;;;;;6228025;22;20061;-84
2022/01/27 13:10:19;;;;;;;34.42;14.98;;;;;;;;;;6234690;22;20049;-84
2022/01/27 13:12:54;;;;;;;32.95;13.85;;;;;;;;;;6199573;22;20068;-84
2022/01/27 13:15:22;;;;;;;40.45;18.65;;;;;;;;;;6220591;22;20020;-84
2022/01/27 13:18:14;;;;;;;39.13;17.00;;;;;;;;;;6219240;22;20024;-84
2022/01/27 13:20:39;;;;;;;34.30;16.40;;;;;;;;;;6247665;22;20030;-84
2022/01/27 13:25:45;;;;;;;38.67;18.15;;;;;;;;;;6247076;22;20019;-84
2022/01/27 13:28:19;;;;;;;28.80;12.50;;;;;;;;;;6218968;22;20024;-83
2022/01/27 13:30:50;;;;;;;32.53;14.30;;;;;;;;;;6220932;22;20016;-84
2022/01/27 13:33:17;;;;;;;31.80;14.43;;;;;;;;;;6219418;22;20019;-84
2022/01/27 13:35:43;;;;;;;26.48;12.95;;;;;;;;;;6218918;22;20114;-83
2022/01/27 13:38:09;;;;;;;24.60;10.27;;;;;;;;;;6243346;22;20072;-83
2022/01/27 13:43:20;;;;;;;29.02;14.90;;;;;;;;;;6247651;22;20357;-84
2022/01/27 13:45:46;;;;;;;28.00;13.75;;;;;;;;;;6218953;22;20027;-83
2022/01/27 13:48:22;;;;;;;25.48;12.23;;;;;;;;;;6217615;22;20052;-83
2022/01/27 13:50:56;;;;;;;29.05;14.68;;;;;;;;;;6218378;22;20108;-83
2022/01/27 13:53:22;;;;;;;29.02;13.40;;;;;;;;;;6218048;22;20030;-83
2022/01/27 13:56:02;;;;;;;20.50;9.55;;;;;;;;;;6216749;22;20023;-83
2022/01/27 13:58:29;;;;;;;29.13;12.75;;;;;;;;;;6218145;22;20022;-83
2022/01/27 14:01:11;;;;;;;24.10;11.52;;;;;;;;;;6219368;22;20449;-83
2022/01/27 14:03:45;;;;;;;24.42;11.63;;;;;;;;;;6218955;22;20018;-83
2022/01/27 14:06:11;;;;;;;27.92;12.88;;;;;;;;;;6216764;22;20020;-84
2022/01/27 14:08:44;;;;;;;22.08;10.70;;;;;;;;;;6218127;22;20073;-83
2022/01/27 14:11:15;;;;;;;26.23;12.90;;;;;;;;;;6217420;22;20345;-83
2022/01/27 14:13:42;;;;;;;27.48;13.40;;;;;;;;;;6219227;22;20024;-84
2022/01/27 14:16:08;;;;;;;27.25;12.85;;;;;;;;;;6217751;22;20046;-83
2022/01/27 14:18:43;;;;;;;23.83;13.15;;;;;;;;;;6217493;22;20020;-83
2022/01/27 14:21:09;;;;;;;25.45;12.23;;;;;;;;;;6217813;22;20457;-84
2022/01/27 14:23:57;;;;;;;30.45;13.63;;;;;;;;;;6242432;22;20445;-83
2022/01/27 14:29:11;;;;;;;25.75;13.00;;;;;;;;;;6244380;22;20023;-83
2022/01/27 14:31:39;;;;;;;26.95;13.13;;;;;;;;;;6217465;22;20027;-83
2022/01/27 14:34:05;;;;;;;22.20;10.05;;;;;;;;;;6218994;22;20566;-83
2022/01/27 14:36:31;;;;;;;24.80;12.93;;;;;;;;;;6218916;22;20022;-84
2022/01/27 14:38:56;;;;;;;27.60;13.13;;;;;;;;;;6219502;22;20331;-84
2022/01/27 14:41:22;;;;;;;23.58;12.77;;;;;;;;;;6243954;22;20091;-84
2022/01/27 14:43:49;;;;;;;25.42;12.55;;;;;;;;;;6221293;22;20020;-83
2022/01/27 14:46:22;;;;;;;23.50;12.27;;;;;;;;;;6220158;22;20024;-84
2022/01/27 14:48:53;;;;;;;25.02;12.23;;;;;;;;;;6221925;22;20018;-84
2022/01/27 14:51:20;;;;;;;22.20;11.25;;;;;;;;;;6220925;22;20392;-83
2022/01/27 14:53:47;;;;;;;21.88;10.80;;;;;;;;;;6220252;22;20020;-83
2022/01/27 14:56:12;;;;;;;27.67;13.25;;;;;;;;;;6218993;22;20016;-83
2022/01/27 14:58:38;;;;;;;22.10;11.65;;;;;;;;;;6219699;22;20333;-84
2022/01/27 15:01:04;;;;;;;26.17;12.73;;;;;;;;;;6220828;22;20396;-84
2022/01/27 15:03:30;;;;;;;22.50;11.13;;;;;;;;;;6221193;22;20019;-84
2022/01/27 15:05:56;;;;;;;22.08;11.02;;;;;;;;;;6220287;22;20128;-84
2022/01/27 15:08:22;;;;;;;24.33;10.57;;;;;;;;;;6246593;22;20046;-83
2022/01/27 15:10:47;;;;;;;19.90;10.32;;;;;;;;;;6219870;22;20059;-84
2022/01/27 15:13:15;;;;;;;22.40;10.60;;;;;;;;;;6220481;22;20024;-84
2022/01/27 15:21:10;;;;;;;18.88;10.05;;;;;;;;;;6248395;22;20089;-84
2022/01/27 15:23:35;;;;;;;16.73;9.13;;;;;;;;;;6219683;22;20023;-83
2022/01/27 15:26:03;;;;;;;21.73;9.68;;;;;;;;;;6220666;22;20349;-84